sensor_id;sensor_type;location;lat;lon;timestamp;P1;durP1;ratioP1;P2;durP2;ratioP2
9729;SDS011;4904;49.152;11.004;2023-03-01T00:00:04;16.20;;;11.80;;
9729;SDS011;4904;49.152;11.004;2023-03-01T00:02:33;16.37;;;11.57;;
9729;SDS011;4904;49.152;11.004;2023-03-01T00:05:00;14.23;;;11.63;;
9729;SDS011;4904;49.152;11.004;2023-03-01T00:07:28;17.07;;;11.90;;
9729;SDS011;4904;49.152;11.004;2023-03-01T00:09:56;16.70;;;11.43;;
9729;SDS011;4904;49.152;11.004;2023-03-01T00:12:23;16.63;;;12.80;;
9729;SDS011;4904;49.152;11.004;2023-03-01T00:14:50;15.03;;;11.80;;
9729;SDS011;4904;49.152;11.004;2023-03-01T00:17:17;15.97;;;11.63;;
9729;SDS011;4904;49.152;11.004;2023-03-01T00:19:43;16.00;;;11.90;;
9729;SDS011;4904;49.152;11.004;2023-03-01T00:22:10;15.07;;;11.23;;
9729;SDS011;4904;49.152;11.004;2023-03-01T00:24:37;18.30;;;12.77;;
9729;SDS011;4904;49.152;11.004;2023-03-01T00:27:05;16.97;;;12.20;;
9729;SDS011;4904;49.152;11.004;2023-03-01T00:29:32;18.60;;;12.63;;
9729;SDS011;4904;49.152;11.004;2023-03-01T00:31:59;15.80;;;11.70;;
9729;SDS011;4904;49.152;11.004;2023-03-01T00:34:26;16.43;;;11.63;;
9729;SDS011;4904;49.152;11.004;2023-03-01T00:36:53;15.17;;;11.37;;
9729;SDS011;4904;49.152;11.004;2023-03-01T00:39:20;15.83;;;12.13;;
9729;SDS011;4904;49.152;11.004;2023-03-01T00:41:47;15.07;;;11.83;;
9729;SDS011;4904;49.152;11.004;2023-03-01T00:44:15;16.43;;;11.90;;
9729;SDS011;4904;49.152;11.004;2023-03-01T00:46:42;18.13;;;12.30;;
9729;SDS011;4904;49.152;11.004;2023-03-01T00:49:09;17.83;;;12.30;;
9729;SDS011;4904;49.152;11.004;2023-03-01T00:51:36;18.90;;;13.03;;
9729;SDS011;4904;49.152;11.004;2023-03-01T00:54:04;18.37;;;12.73;;
9729;SDS011;4904;49.152;11.004;2023-03-01T00:56:31;19.60;;;13.87;;
9729;SDS011;4904;49.152;11.004;2023-03-01T00:58:58;31.73;;;18.30;;
9729;SDS011;4904;49.152;11.004;2023-03-01T01:01:27;29.00;;;17.77;;
9729;SDS011;4904;49.152;11.004;2023-03-01T01:03:56;39.27;;;21.13;;
9729;SDS011;4904;49.152;11.004;2023-03-01T01:06:24;36.30;;;20.10;;
9729;SDS011;4904;49.152;11.004;2023-03-01T01:08:53;34.37;;;21.03;;
9729;SDS011;4904;49.152;11.004;2023-03-01T01:11:21;32.03;;;20.83;;
9729;SDS011;4904;49.152;11.004;2023-03-01T01:13:49;25.83;;;18.60;;
9729;SDS011;4904;49.152;11.004;2023-03-01T01:16:17;24.23;;;16.93;;
9729;SDS011;4904;49.152;11.004;2023-03-01T01:18:46;22.17;;;16.27;;
9729;SDS011;4904;49.152;11.004;2023-03-01T01:21:14;21.07;;;13.50;;
9729;SDS011;4904;49.152;11.004;2023-03-01T01:23:42;18.10;;;12.97;;
9729;SDS011;4904;49.152;11.004;2023-03-01T01:26:10;19.70;;;13.47;;
9729;SDS011;4904;49.152;11.004;2023-03-01T01:28:39;18.60;;;12.87;;
9729;SDS011;4904;49.152;11.004;2023-03-01T01:31:06;16.03;;;12.33;;
9729;SDS011;4904;49.152;11.004;2023-03-01T01:33:33;17.03;;;12.20;;
9729;SDS011;4904;49.152;11.004;2023-03-01T01:36:04;14.00;;;11.23;;
9729;SDS011;4904;49.152;11.004;2023-03-01T01:38:34;18.27;;;11.93;;
9729;SDS011;4904;49.152;11.004;2023-03-01T01:41:01;16.83;;;11.73;;
9729;SDS011;4904;49.152;11.004;2023-03-01T01:43:29;17.60;;;12.40;;
9729;SDS011;4904;49.152;11.004;2023-03-01T01:45:58;19.40;;;12.33;;
9729;SDS011;4904;49.152;11.004;2023-03-01T01:48:28;16.83;;;11.77;;
9729;SDS011;4904;49.152;11.004;2023-03-01T01:51:07;17.03;;;11.47;;
9729;SDS011;4904;49.152;11.004;2023-03-01T01:53:37;16.43;;;12.33;;
9729;SDS011;4904;49.152;11.004;2023-03-01T01:56:06;15.90;;;12.47;;
9729;SDS011;4904;49.152;11.004;2023-03-01T01:58:35;16.67;;;12.90;;
9729;SDS011;4904;49.152;11.004;2023-03-01T02:01:02;16.50;;;11.30;;
9729;SDS011;4904;49.152;11.004;2023-03-01T02:03:31;18.00;;;11.97;;
9729;SDS011;4904;49.152;11.004;2023-03-01T02:06:03;17.23;;;12.53;;
9729;SDS011;4904;49.152;11.004;2023-03-01T02:08:39;18.57;;;12.30;;
9729;SDS011;4904;49.152;11.004;2023-03-01T02:11:08;16.37;;;11.93;;
9729;SDS011;4904;49.152;11.004;2023-03-01T02:13:36;17.33;;;12.07;;
9729;SDS011;4904;49.152;11.004;2023-03-01T02:16:03;16.33;;;12.10;;
9729;SDS011;4904;49.152;11.004;2023-03-01T02:18:31;16.73;;;11.83;;
9729;SDS011;4904;49.152;11.004;2023-03-01T02:21:01;15.57;;;11.10;;
9729;SDS011;4904;49.152;11.004;2023-03-01T02:23:46;14.17;;;11.50;;
9729;SDS011;4904;49.152;11.004;2023-03-01T02:26:17;15.33;;;11.63;;
9729;SDS011;4904;49.152;11.004;2023-03-01T02:28:51;16.90;;;11.80;;
9729;SDS011;4904;49.152;11.004;2023-03-01T02:31:20;17.13;;;12.27;;
9729;SDS011;4904;49.152;11.004;2023-03-01T02:34:06;15.53;;;11.73;;
9729;SDS011;4904;49.152;11.004;2023-03-01T02:36:35;16.60;;;12.00;;
9729;SDS011;4904;49.152;11.004;2023-03-01T02:39:04;17.27;;;11.47;;
9729;SDS011;4904;49.152;11.004;2023-03-01T02:41:39;18.10;;;11.33;;
9729;SDS011;4904;49.152;11.004;2023-03-01T02:44:10;16.17;;;10.73;;
9729;SDS011;4904;49.152;11.004;2023-03-01T02:46:41;15.47;;;11.87;;
9729;SDS011;4904;49.152;11.004;2023-03-01T02:49:22;15.73;;;11.40;;
9729;SDS011;4904;49.152;11.004;2023-03-01T02:54:50;15.70;;;11.63;;
9729;SDS011;4904;49.152;11.004;2023-03-01T02:57:23;17.90;;;11.80;;
9729;SDS011;4904;49.152;11.004;2023-03-01T02:59:53;16.07;;;12.37;;
9729;SDS011;4904;49.152;11.004;2023-03-01T03:02:23;17.90;;;11.63;;
9729;SDS011;4904;49.152;11.004;2023-03-01T03:05:01;16.93;;;11.67;;
9729;SDS011;4904;49.152;11.004;2023-03-01T03:07:31;17.97;;;12.90;;
9729;SDS011;4904;49.152;11.004;2023-03-01T03:09:59;16.50;;;11.60;;
9729;SDS011;4904;49.152;11.004;2023-03-01T03:12:26;16.20;;;11.83;;
9729;SDS011;4904;49.152;11.004;2023-03-01T03:14:54;17.67;;;12.47;;
9729;SDS011;4904;49.152;11.004;2023-03-01T03:17:21;17.43;;;12.30;;
9729;SDS011;4904;49.152;11.004;2023-03-01T03:19:48;16.77;;;11.87;;
9729;SDS011;4904;49.152;11.004;2023-03-01T03:22:14;17.27;;;12.80;;
9729;SDS011;4904;49.152;11.004;2023-03-01T03:24:41;17.80;;;12.43;;
9729;SDS011;4904;49.152;11.004;2023-03-01T03:27:08;16.90;;;12.40;;
9729;SDS011;4904;49.152;11.004;2023-03-01T03:29:35;17.63;;;12.47;;
9729;SDS011;4904;49.152;11.004;2023-03-01T03:32:03;17.73;;;11.93;;
9729;SDS011;4904;49.152;11.004;2023-03-01T03:34:31;16.93;;;12.30;;
9729;SDS011;4904;49.152;11.004;2023-03-01T03:36:58;17.23;;;12.43;;
9729;SDS011;4904;49.152;11.004;2023-03-01T03:39:25;15.93;;;12.43;;
9729;SDS011;4904;49.152;11.004;2023-03-01T03:41:52;16.43;;;11.73;;
9729;SDS011;4904;49.152;11.004;2023-03-01T03:44:20;16.67;;;12.47;;
9729;SDS011;4904;49.152;11.004;2023-03-01T03:46:47;16.37;;;11.83;;
9729;SDS011;4904;49.152;11.004;2023-03-01T03:49:15;20.80;;;12.57;;
9729;SDS011;4904;49.152;11.004;2023-03-01T03:51:42;17.27;;;12.17;;
9729;SDS011;4904;49.152;11.004;2023-03-01T03:54:11;15.97;;;11.93;;
9729;SDS011;4904;49.152;11.004;2023-03-01T03:56:38;15.17;;;12.00;;
9729;SDS011;4904;49.152;11.004;2023-03-01T03:59:05;16.37;;;11.43;;
9729;SDS011;4904;49.152;11.004;2023-03-01T04:01:32;16.73;;;12.93;;
9729;SDS011;4904;49.152;11.004;2023-03-01T04:03:59;17.70;;;12.53;;
9729;SDS011;4904;49.152;11.004;2023-03-01T04:06:30;16.27;;;12.10;;
9729;SDS011;4904;49.152;11.004;2023-03-01T04:08:57;18.70;;;12.20;;
9729;SDS011;4904;49.152;11.004;2023-03-01T04:11:25;17.83;;;12.60;;
9729;SDS011;4904;49.152;11.004;2023-03-01T04:13:53;16.40;;;11.53;;
9729;SDS011;4904;49.152;11.004;2023-03-01T04:16:22;19.50;;;13.10;;
9729;SDS011;4904;49.152;11.004;2023-03-01T04:18:50;19.67;;;13.60;;
9729;SDS011;4904;49.152;11.004;2023-03-01T04:21:17;17.70;;;12.80;;
9729;SDS011;4904;49.152;11.004;2023-03-01T04:23:46;17.77;;;13.47;;
9729;SDS011;4904;49.152;11.004;2023-03-01T04:26:13;17.77;;;12.73;;
9729;SDS011;4904;49.152;11.004;2023-03-01T04:28:40;16.27;;;12.67;;
9729;SDS011;4904;49.152;11.004;2023-03-01T04:31:10;18.40;;;12.70;;
9729;SDS011;4904;49.152;11.004;2023-03-01T04:33:41;17.97;;;12.57;;
9729;SDS011;4904;49.152;11.004;2023-03-01T04:36:09;17.67;;;12.63;;
9729;SDS011;4904;49.152;11.004;2023-03-01T04:38:38;17.40;;;12.73;;
9729;SDS011;4904;49.152;11.004;2023-03-01T04:41:07;19.07;;;13.07;;
9729;SDS011;4904;49.152;11.004;2023-03-01T04:43:36;18.77;;;12.40;;
9729;SDS011;4904;49.152;11.004;2023-03-01T04:46:04;20.93;;;13.33;;
9729;SDS011;4904;49.152;11.004;2023-03-01T04:48:34;21.13;;;12.80;;
9729;SDS011;4904;49.152;11.004;2023-03-01T04:51:01;16.23;;;12.47;;
9729;SDS011;4904;49.152;11.004;2023-03-01T04:53:29;17.77;;;12.73;;
9729;SDS011;4904;49.152;11.004;2023-03-01T04:55:57;18.87;;;13.77;;
9729;SDS011;4904;49.152;11.004;2023-03-01T04:58:26;16.67;;;12.37;;
9729;SDS011;4904;49.152;11.004;2023-03-01T05:00:53;18.30;;;13.03;;
9729;SDS011;4904;49.152;11.004;2023-03-01T05:03:20;21.10;;;14.30;;
9729;SDS011;4904;49.152;11.004;2023-03-01T05:05:48;18.20;;;12.73;;
9729;SDS011;4904;49.152;11.004;2023-03-01T05:08:17;16.83;;;12.97;;
9729;SDS011;4904;49.152;11.004;2023-03-01T05:10:46;18.33;;;13.33;;
9729;SDS011;4904;49.152;11.004;2023-03-01T05:13:15;18.47;;;12.97;;
9729;SDS011;4904;49.152;11.004;2023-03-01T05:15:47;19.77;;;13.40;;
9729;SDS011;4904;49.152;11.004;2023-03-01T05:18:15;20.23;;;12.93;;
9729;SDS011;4904;49.152;11.004;2023-03-01T05:20:42;22.07;;;13.43;;
9729;SDS011;4904;49.152;11.004;2023-03-01T05:23:09;19.00;;;13.50;;
9729;SDS011;4904;49.152;11.004;2023-03-01T05:25:36;19.67;;;13.67;;
9729;SDS011;4904;49.152;11.004;2023-03-01T05:28:05;16.83;;;13.03;;
9729;SDS011;4904;49.152;11.004;2023-03-01T05:30:34;18.80;;;13.07;;
9729;SDS011;4904;49.152;11.004;2023-03-01T05:33:05;21.07;;;12.93;;
9729;SDS011;4904;49.152;11.004;2023-03-01T05:35:38;20.70;;;13.00;;
9729;SDS011;4904;49.152;11.004;2023-03-01T05:38:07;20.43;;;14.17;;
9729;SDS011;4904;49.152;11.004;2023-03-01T05:40:38;19.00;;;13.60;;
9729;SDS011;4904;49.152;11.004;2023-03-01T05:43:05;19.77;;;13.07;;
9729;SDS011;4904;49.152;11.004;2023-03-01T05:45:32;17.77;;;12.57;;
9729;SDS011;4904;49.152;11.004;2023-03-01T05:48:01;20.17;;;13.43;;
9729;SDS011;4904;49.152;11.004;2023-03-01T05:50:32;19.10;;;13.17;;
9729;SDS011;4904;49.152;11.004;2023-03-01T05:53:00;19.20;;;13.83;;
9729;SDS011;4904;49.152;11.004;2023-03-01T05:55:29;25.63;;;14.70;;
9729;SDS011;4904;49.152;11.004;2023-03-01T05:57:58;23.33;;;15.37;;
9729;SDS011;4904;49.152;11.004;2023-03-01T06:00:26;30.07;;;18.23;;
9729;SDS011;4904;49.152;11.004;2023-03-01T06:02:53;30.10;;;19.43;;
9729;SDS011;4904;49.152;11.004;2023-03-01T06:05:21;30.27;;;19.37;;
9729;SDS011;4904;49.152;11.004;2023-03-01T06:07:49;32.27;;;20.13;;
9729;SDS011;4904;49.152;11.004;2023-03-01T06:10:18;36.83;;;22.30;;
9729;SDS011;4904;49.152;11.004;2023-03-01T06:12:46;32.47;;;21.73;;
9729;SDS011;4904;49.152;11.004;2023-03-01T06:15:13;27.67;;;19.03;;
9729;SDS011;4904;49.152;11.004;2023-03-01T06:17:42;21.63;;;15.77;;
9729;SDS011;4904;49.152;11.004;2023-03-01T06:20:11;28.33;;;18.17;;
9729;SDS011;4904;49.152;11.004;2023-03-01T06:22:40;23.33;;;16.33;;
9729;SDS011;4904;49.152;11.004;2023-03-01T06:25:09;22.33;;;14.67;;
9729;SDS011;4904;49.152;11.004;2023-03-01T06:27:37;21.90;;;14.67;;
9729;SDS011;4904;49.152;11.004;2023-03-01T06:30:05;22.97;;;15.30;;
9729;SDS011;4904;49.152;11.004;2023-03-01T06:32:33;21.73;;;15.27;;
9729;SDS011;4904;49.152;11.004;2023-03-01T06:35:00;24.97;;;15.80;;
9729;SDS011;4904;49.152;11.004;2023-03-01T06:37:27;22.33;;;13.93;;
9729;SDS011;4904;49.152;11.004;2023-03-01T06:39:53;20.60;;;14.43;;
9729;SDS011;4904;49.152;11.004;2023-03-01T06:42:22;18.77;;;13.70;;
9729;SDS011;4904;49.152;11.004;2023-03-01T06:44:48;19.73;;;14.43;;
9729;SDS011;4904;49.152;11.004;2023-03-01T06:47:15;20.60;;;14.70;;
9729;SDS011;4904;49.152;11.004;2023-03-01T06:49:42;18.17;;;13.83;;
9729;SDS011;4904;49.152;11.004;2023-03-01T06:52:09;22.67;;;15.00;;
9729;SDS011;4904;49.152;11.004;2023-03-01T06:54:36;20.83;;;14.43;;
9729;SDS011;4904;49.152;11.004;2023-03-01T06:57:02;20.90;;;15.50;;
9729;SDS011;4904;49.152;11.004;2023-03-01T06:59:31;22.40;;;15.30;;
9729;SDS011;4904;49.152;11.004;2023-03-01T07:01:57;19.73;;;14.47;;
9729;SDS011;4904;49.152;11.004;2023-03-01T07:04:24;18.33;;;14.13;;
9729;SDS011;4904;49.152;11.004;2023-03-01T07:06:53;19.70;;;13.83;;
9729;SDS011;4904;49.152;11.004;2023-03-01T07:09:20;18.87;;;14.20;;
9729;SDS011;4904;49.152;11.004;2023-03-01T07:11:47;23.17;;;15.33;;
9729;SDS011;4904;49.152;11.004;2023-03-01T07:14:15;23.20;;;15.20;;
9729;SDS011;4904;49.152;11.004;2023-03-01T07:16:43;19.80;;;14.67;;
9729;SDS011;4904;49.152;11.004;2023-03-01T07:19:12;23.13;;;14.93;;
9729;SDS011;4904;49.152;11.004;2023-03-01T07:21:39;25.10;;;16.10;;
9729;SDS011;4904;49.152;11.004;2023-03-01T07:24:06;24.50;;;15.33;;
9729;SDS011;4904;49.152;11.004;2023-03-01T07:26:35;21.47;;;14.80;;
9729;SDS011;4904;49.152;11.004;2023-03-01T07:29:03;21.47;;;15.10;;
9729;SDS011;4904;49.152;11.004;2023-03-01T07:31:30;22.40;;;15.00;;
9729;SDS011;4904;49.152;11.004;2023-03-01T07:33:59;22.03;;;15.40;;
9729;SDS011;4904;49.152;11.004;2023-03-01T07:36:26;21.17;;;15.50;;
9729;SDS011;4904;49.152;11.004;2023-03-01T07:38:53;42.27;;;23.97;;
9729;SDS011;4904;49.152;11.004;2023-03-01T07:41:21;27.23;;;17.53;;
9729;SDS011;4904;49.152;11.004;2023-03-01T07:43:48;21.47;;;15.03;;
9729;SDS011;4904;49.152;11.004;2023-03-01T07:46:15;23.27;;;15.37;;
9729;SDS011;4904;49.152;11.004;2023-03-01T07:48:43;20.67;;;14.63;;
9729;SDS011;4904;49.152;11.004;2023-03-01T07:51:11;21.37;;;15.00;;
9729;SDS011;4904;49.152;11.004;2023-03-01T07:53:38;25.37;;;14.67;;
9729;SDS011;4904;49.152;11.004;2023-03-01T07:56:06;23.17;;;15.77;;
9729;SDS011;4904;49.152;11.004;2023-03-01T07:58:34;21.23;;;14.87;;
9729;SDS011;4904;49.152;11.004;2023-03-01T08:01:02;22.60;;;14.93;;
9729;SDS011;4904;49.152;11.004;2023-03-01T08:03:29;21.10;;;14.27;;
9729;SDS011;4904;49.152;11.004;2023-03-01T08:05:58;24.97;;;14.40;;
9729;SDS011;4904;49.152;11.004;2023-03-01T08:08:27;20.20;;;14.60;;
9729;SDS011;4904;49.152;11.004;2023-03-01T08:10:55;20.30;;;15.30;;
9729;SDS011;4904;49.152;11.004;2023-03-01T08:13:22;23.07;;;15.13;;
9729;SDS011;4904;49.152;11.004;2023-03-01T08:15:49;24.87;;;15.83;;
9729;SDS011;4904;49.152;11.004;2023-03-01T08:18:16;21.73;;;15.03;;
9729;SDS011;4904;49.152;11.004;2023-03-01T08:20:44;22.97;;;15.47;;
9729;SDS011;4904;49.152;11.004;2023-03-01T08:23:11;22.53;;;15.90;;
9729;SDS011;4904;49.152;11.004;2023-03-01T08:25:40;22.70;;;15.60;;
9729;SDS011;4904;49.152;11.004;2023-03-01T08:28:07;22.17;;;16.00;;
9729;SDS011;4904;49.152;11.004;2023-03-01T08:30:34;22.43;;;15.67;;
9729;SDS011;4904;49.152;11.004;2023-03-01T08:33:01;21.33;;;15.70;;
9729;SDS011;4904;49.152;11.004;2023-03-01T08:35:28;20.77;;;15.40;;
9729;SDS011;4904;49.152;11.004;2023-03-01T08:37:54;21.47;;;15.57;;
9729;SDS011;4904;49.152;11.004;2023-03-01T08:40:21;22.40;;;15.77;;
9729;SDS011;4904;49.152;11.004;2023-03-01T08:42:50;24.87;;;16.70;;
9729;SDS011;4904;49.152;11.004;2023-03-01T08:45:16;21.17;;;15.30;;
9729;SDS011;4904;49.152;11.004;2023-03-01T08:47:44;21.10;;;15.57;;
9729;SDS011;4904;49.152;11.004;2023-03-01T08:50:11;21.03;;;15.33;;
9729;SDS011;4904;49.152;11.004;2023-03-01T08:52:38;23.47;;;16.20;;
9729;SDS011;4904;49.152;11.004;2023-03-01T08:55:06;22.40;;;15.17;;
9729;SDS011;4904;49.152;11.004;2023-03-01T08:57:33;22.43;;;15.33;;
9729;SDS011;4904;49.152;11.004;2023-03-01T09:00:02;21.93;;;16.07;;
9729;SDS011;4904;49.152;11.004;2023-03-01T09:02:33;22.27;;;15.50;;
9729;SDS011;4904;49.152;11.004;2023-03-01T09:05:00;21.07;;;15.13;;
9729;SDS011;4904;49.152;11.004;2023-03-01T09:07:27;20.37;;;15.67;;
9729;SDS011;4904;49.152;11.004;2023-03-01T09:09:54;25.23;;;16.10;;
9729;SDS011;4904;49.152;11.004;2023-03-01T09:12:21;19.80;;;14.83;;
9729;SDS011;4904;49.152;11.004;2023-03-01T09:14:49;22.15;;;15.23;;
9729;SDS011;4904;49.152;11.004;2023-03-01T09:17:18;22.75;;;14.40;;
9729;SDS011;4904;49.152;11.004;2023-03-01T09:19:46;20.67;;;14.77;;
9729;SDS011;4904;49.152;11.004;2023-03-01T09:22:13;20.50;;;14.17;;
9729;SDS011;4904;49.152;11.004;2023-03-01T09:24:40;23.47;;;14.73;;
9729;SDS011;4904;49.152;11.004;2023-03-01T09:27:07;21.63;;;14.20;;
9729;SDS011;4904;49.152;11.004;2023-03-01T09:29:35;20.77;;;14.37;;
9729;SDS011;4904;49.152;11.004;2023-03-01T09:32:02;21.63;;;14.70;;
9729;SDS011;4904;49.152;11.004;2023-03-01T09:34:30;18.83;;;13.98;;
9729;SDS011;4904;49.152;11.004;2023-03-01T09:37:17;17.85;;;14.05;;
9729;SDS011;4904;49.152;11.004;2023-03-01T09:39:44;20.97;;;14.77;;
9729;SDS011;4904;49.152;11.004;2023-03-01T09:42:11;21.37;;;14.63;;
9729;SDS011;4904;49.152;11.004;2023-03-01T09:44:42;20.40;;;14.83;;
9729;SDS011;4904;49.152;11.004;2023-03-01T09:47:16;19.00;;;14.03;;
9729;SDS011;4904;49.152;11.004;2023-03-01T09:49:46;19.50;;;14.50;;
9729;SDS011;4904;49.152;11.004;2023-03-01T09:52:21;20.92;;;14.38;;
9729;SDS011;4904;49.152;11.004;2023-03-01T09:54:55;18.42;;;14.20;;
9729;SDS011;4904;49.152;11.004;2023-03-01T09:57:26;22.35;;;14.80;;
9729;SDS011;4904;49.152;11.004;2023-03-01T10:03:01;19.70;;;13.90;;
9729;SDS011;4904;49.152;11.004;2023-03-01T10:05:38;19.98;;;14.68;;
9729;SDS011;4904;49.152;11.004;2023-03-01T10:08:25;18.83;;;14.10;;
9729;SDS011;4904;49.152;11.004;2023-03-01T10:11:01;20.33;;;14.00;;
9729;SDS011;4904;49.152;11.004;2023-03-01T10:13:29;18.98;;;13.52;;
9729;SDS011;4904;49.152;11.004;2023-03-01T10:16:05;18.25;;;13.60;;
9729;SDS011;4904;49.152;11.004;2023-03-01T10:18:37;22.25;;;13.68;;
9729;SDS011;4904;49.152;11.004;2023-03-01T10:21:12;18.70;;;13.60;;
9729;SDS011;4904;49.152;11.004;2023-03-01T10:23:41;19.95;;;14.85;;
9729;SDS011;4904;49.152;11.004;2023-03-01T10:26:15;19.40;;;14.13;;
9729;SDS011;4904;49.152;11.004;2023-03-01T10:28:54;21.20;;;15.05;;
9729;SDS011;4904;49.152;11.004;2023-03-01T10:31:36;18.95;;;14.15;;
9729;SDS011;4904;49.152;11.004;2023-03-01T10:34:08;20.52;;;13.95;;
9729;SDS011;4904;49.152;11.004;2023-03-01T10:36:40;18.33;;;13.38;;
9729;SDS011;4904;49.152;11.004;2023-03-01T10:39:12;16.40;;;12.73;;
9729;SDS011;4904;49.152;11.004;2023-03-01T10:41:51;19.80;;;13.85;;
9729;SDS011;4904;49.152;11.004;2023-03-01T10:44:38;19.08;;;14.40;;
9729;SDS011;4904;49.152;11.004;2023-03-01T10:47:19;20.98;;;14.55;;
9729;SDS011;4904;49.152;11.004;2023-03-01T10:49:55;20.05;;;13.82;;
9729;SDS011;4904;49.152;11.004;2023-03-01T10:52:26;16.95;;;13.45;;
9729;SDS011;4904;49.152;11.004;2023-03-01T10:54:55;17.63;;;13.90;;
9729;SDS011;4904;49.152;11.004;2023-03-01T10:57:30;17.60;;;13.70;;
9729;SDS011;4904;49.152;11.004;2023-03-01T11:02:47;16.00;;;12.98;;
9729;SDS011;4904;49.152;11.004;2023-03-01T11:05:18;18.73;;;13.32;;
9729;SDS011;4904;49.152;11.004;2023-03-01T11:07:50;18.25;;;13.55;;
9729;SDS011;4904;49.152;11.004;2023-03-01T11:10:19;18.83;;;12.52;;
9729;SDS011;4904;49.152;11.004;2023-03-01T11:12:48;18.00;;;13.60;;
9729;SDS011;4904;49.152;11.004;2023-03-01T11:15:24;18.58;;;12.65;;
9729;SDS011;4904;49.152;11.004;2023-03-01T11:17:53;19.13;;;13.77;;
9729;SDS011;4904;49.152;11.004;2023-03-01T11:20:24;15.75;;;12.95;;
9729;SDS011;4904;49.152;11.004;2023-03-01T11:22:57;17.27;;;13.13;;
9729;SDS011;4904;49.152;11.004;2023-03-01T11:25:29;17.73;;;13.52;;
9729;SDS011;4904;49.152;11.004;2023-03-01T11:27:59;19.55;;;14.60;;
9729;SDS011;4904;49.152;11.004;2023-03-01T11:30:30;18.23;;;14.18;;
9729;SDS011;4904;49.152;11.004;2023-03-01T11:33:03;18.25;;;12.68;;
9729;SDS011;4904;49.152;11.004;2023-03-01T11:35:41;17.58;;;13.60;;
9729;SDS011;4904;49.152;11.004;2023-03-01T11:38:22;16.27;;;13.38;;
9729;SDS011;4904;49.152;11.004;2023-03-01T11:40:53;19.00;;;13.93;;
9729;SDS011;4904;49.152;11.004;2023-03-01T11:43:26;17.02;;;13.18;;
9729;SDS011;4904;49.152;11.004;2023-03-01T11:46:09;17.35;;;13.93;;
9729;SDS011;4904;49.152;11.004;2023-03-01T11:49:06;16.42;;;13.20;;
9729;SDS011;4904;49.152;11.004;2023-03-01T11:51:54;16.30;;;14.02;;
9729;SDS011;4904;49.152;11.004;2023-03-01T11:54:33;16.10;;;12.52;;
9729;SDS011;4904;49.152;11.004;2023-03-01T11:57:14;18.65;;;12.88;;
9729;SDS011;4904;49.152;11.004;2023-03-01T12:00:00;15.52;;;12.15;;
9729;SDS011;4904;49.152;11.004;2023-03-01T12:02:47;16.58;;;12.25;;
9729;SDS011;4904;49.152;11.004;2023-03-01T12:05:46;14.02;;;11.90;;
9729;SDS011;4904;49.152;11.004;2023-03-01T12:08:29;16.70;;;12.30;;
9729;SDS011;4904;49.152;11.004;2023-03-01T12:11:06;15.15;;;12.77;;
9729;SDS011;4904;49.152;11.004;2023-03-01T12:14:05;15.70;;;12.63;;
9729;SDS011;4904;49.152;11.004;2023-03-01T12:16:57;17.60;;;12.07;;
9729;SDS011;4904;49.152;11.004;2023-03-01T12:19:36;14.57;;;12.07;;
9729;SDS011;4904;49.152;11.004;2023-03-01T12:22:24;17.27;;;12.07;;
9729;SDS011;4904;49.152;11.004;2023-03-01T12:27:56;13.23;;;11.75;;
9729;SDS011;4904;49.152;11.004;2023-03-01T12:30:52;14.18;;;11.73;;
9729;SDS011;4904;49.152;11.004;2023-03-01T12:33:30;13.65;;;11.50;;
9729;SDS011;4904;49.152;11.004;2023-03-01T12:36:14;13.57;;;11.15;;
9729;SDS011;4904;49.152;11.004;2023-03-01T12:38:59;14.07;;;11.43;;
9729;SDS011;4904;49.152;11.004;2023-03-01T12:41:46;13.27;;;11.32;;
9729;SDS011;4904;49.152;11.004;2023-03-01T12:47:23;13.38;;;10.98;;
9729;SDS011;4904;49.152;11.004;2023-03-01T12:50:01;15.65;;;12.60;;
9729;SDS011;4904;49.152;11.004;2023-03-01T12:52:33;14.02;;;11.82;;
9729;SDS011;4904;49.152;11.004;2023-03-01T12:55:06;16.75;;;12.00;;
9729;SDS011;4904;49.152;11.004;2023-03-01T12:57:45;15.07;;;12.13;;
9729;SDS011;4904;49.152;11.004;2023-03-01T13:00:21;17.83;;;11.80;;
9729;SDS011;4904;49.152;11.004;2023-03-01T13:02:54;14.82;;;11.70;;
9729;SDS011;4904;49.152;11.004;2023-03-01T13:05:29;13.60;;;11.38;;
9729;SDS011;4904;49.152;11.004;2023-03-01T13:08:05;13.30;;;10.85;;
9729;SDS011;4904;49.152;11.004;2023-03-01T13:10:40;14.05;;;11.38;;
9729;SDS011;4904;49.152;11.004;2023-03-01T13:13:14;12.60;;;10.73;;
9729;SDS011;4904;49.152;11.004;2023-03-01T13:15:47;12.77;;;10.40;;
9729;SDS011;4904;49.152;11.004;2023-03-01T13:21:06;13.15;;;9.63;;
9729;SDS011;4904;49.152;11.004;2023-03-01T13:23:35;14.18;;;11.23;;
9729;SDS011;4904;49.152;11.004;2023-03-01T13:26:05;14.05;;;11.20;;
9729;SDS011;4904;49.152;11.004;2023-03-01T13:28:39;16.10;;;10.93;;
9729;SDS011;4904;49.152;11.004;2023-03-01T13:34:40;13.80;;;10.95;;
9729;SDS011;4904;49.152;11.004;2023-03-01T13:37:24;15.85;;;10.82;;
9729;SDS011;4904;49.152;11.004;2023-03-01T13:40:04;17.60;;;13.35;;
9729;SDS011;4904;49.152;11.004;2023-03-01T13:42:55;13.95;;;11.75;;
9729;SDS011;4904;49.152;11.004;2023-03-01T13:45:24;15.38;;;11.40;;
9729;SDS011;4904;49.152;11.004;2023-03-01T13:48:01;18.00;;;14.23;;
9729;SDS011;4904;49.152;11.004;2023-03-01T13:50:36;22.52;;;15.75;;
9729;SDS011;4904;49.152;11.004;2023-03-01T13:53:10;15.60;;;11.90;;
9729;SDS011;4904;49.152;11.004;2023-03-01T13:55:44;14.80;;;12.32;;
9729;SDS011;4904;49.152;11.004;2023-03-01T13:58:19;15.45;;;12.02;;
9729;SDS011;4904;49.152;11.004;2023-03-01T14:00:54;15.90;;;11.32;;
9729;SDS011;4904;49.152;11.004;2023-03-01T14:03:23;18.67;;;12.43;;
9729;SDS011;4904;49.152;11.004;2023-03-01T14:06:03;19.63;;;11.90;;
9729;SDS011;4904;49.152;11.004;2023-03-01T14:08:33;13.43;;;12.00;;
9729;SDS011;4904;49.152;11.004;2023-03-01T14:14:19;14.13;;;10.85;;
9729;SDS011;4904;49.152;11.004;2023-03-01T14:16:59;13.65;;;11.38;;
9729;SDS011;4904;49.152;11.004;2023-03-01T14:19:34;13.82;;;11.10;;
9729;SDS011;4904;49.152;11.004;2023-03-01T14:22:04;12.02;;;10.63;;
9729;SDS011;4904;49.152;11.004;2023-03-01T14:24:44;14.40;;;11.68;;
9729;SDS011;4904;49.152;11.004;2023-03-01T14:27:14;11.93;;;10.73;;
9729;SDS011;4904;49.152;11.004;2023-03-01T14:29:42;13.50;;;11.75;;
9729;SDS011;4904;49.152;11.004;2023-03-01T14:32:16;13.05;;;11.18;;
9729;SDS011;4904;49.152;11.004;2023-03-01T14:34:46;13.70;;;11.02;;
9729;SDS011;4904;49.152;11.004;2023-03-01T14:37:21;12.23;;;10.93;;
9729;SDS011;4904;49.152;11.004;2023-03-01T14:39:50;12.70;;;11.10;;
9729;SDS011;4904;49.152;11.004;2023-03-01T14:42:18;13.02;;;10.55;;
9729;SDS011;4904;49.152;11.004;2023-03-01T14:44:47;15.18;;;11.20;;
9729;SDS011;4904;49.152;11.004;2023-03-01T14:47:19;12.70;;;10.95;;
9729;SDS011;4904;49.152;11.004;2023-03-01T14:49:53;14.73;;;11.50;;
9729;SDS011;4904;49.152;11.004;2023-03-01T14:52:25;12.95;;;11.65;;
9729;SDS011;4904;49.152;11.004;2023-03-01T14:54:59;12.40;;;10.70;;
9729;SDS011;4904;49.152;11.004;2023-03-01T14:57:28;14.73;;;12.57;;
9729;SDS011;4904;49.152;11.004;2023-03-01T14:59:57;14.55;;;11.57;;
9729;SDS011;4904;49.152;11.004;2023-03-01T15:02:29;14.35;;;11.65;;
9729;SDS011;4904;49.152;11.004;2023-03-01T15:04:58;12.68;;;11.32;;
9729;SDS011;4904;49.152;11.004;2023-03-01T15:07:29;14.98;;;12.57;;
9729;SDS011;4904;49.152;11.004;2023-03-01T15:09:58;17.33;;;13.10;;
9729;SDS011;4904;49.152;11.004;2023-03-01T15:12:35;15.50;;;12.65;;
9729;SDS011;4904;49.152;11.004;2023-03-01T15:15:20;14.35;;;12.35;;
9729;SDS011;4904;49.152;11.004;2023-03-01T15:17:55;15.75;;;12.85;;